createdAt,value
2022-11-03T00:01:18.441Z,101047.75
2022-11-03T00:03:46.163Z,101054.59
2022-11-03T00:06:13.995Z,101045.03
2022-11-03T00:08:43.426Z,101039.00
2022-11-03T00:11:12.753Z,101040.72
2022-11-03T00:13:42.715Z,101038.94
2022-11-03T00:16:12.211Z,100920.09
2022-11-03T00:18:41.288Z,101028.50
2022-11-03T00:21:10.429Z,101015.50
2022-11-03T00:23:40.339Z,101015.50
2022-11-03T00:26:10.402Z,101012.00
2022-11-03T00:28:39.256Z,100999.16
2022-11-03T00:31:10.015Z,100997.25
2022-11-03T00:33:38.640Z,100998.97
2022-11-03T00:36:09.407Z,101000.72
2022-11-03T00:38:37.665Z,100997.19
2022-11-03T00:41:07.130Z,100989.50
2022-11-03T00:43:36.172Z,100993.75
2022-11-03T00:46:05.180Z,100984.97
2022-11-03T00:48:34.063Z,100980.63
2022-11-03T00:51:08.345Z,100959.75
2022-11-03T00:53:38.388Z,100970.91
2022-11-03T00:56:07.293Z,100981.31
2022-11-03T00:58:35.465Z,100961.28
2022-11-03T01:01:05.912Z,100969.91
2022-11-03T01:03:34.636Z,100950.13
2022-11-03T01:06:20.562Z,100957.00
2022-11-03T01:08:49.619Z,100963.63
2022-11-03T01:11:36.778Z,100958.53
2022-11-03T01:14:05.199Z,100942.94
2022-11-03T01:16:33.354Z,100913.50
2022-11-03T01:19:01.127Z,100937.50
2022-11-03T01:21:29.080Z,100927.97
2022-11-03T01:24:00.877Z,100939.22
2022-11-03T01:26:28.911Z,100908.88
2022-11-03T01:28:56.642Z,100915.72
2022-11-03T01:31:26.197Z,100891.69
2022-11-03T01:33:55.938Z,100902.81
2022-11-03T01:36:23.990Z,100918.28
2022-11-03T01:38:52.154Z,100905.38
2022-11-03T01:41:23.061Z,100912.16
2022-11-03T01:43:53.527Z,100905.16
2022-11-03T01:46:25.669Z,100903.53
2022-11-03T01:49:04.629Z,100905.97
2022-11-03T01:51:36.048Z,100897.28
2022-11-03T01:54:08.677Z,100900.72
2022-11-03T01:56:42.112Z,100901.59
2022-11-03T01:59:10.900Z,100873.13
2022-11-03T02:01:38.734Z,100892.94
2022-11-03T02:04:12.849Z,100895.47
2022-11-03T02:06:40.741Z,100889.47
2022-11-03T02:09:10.300Z,100886.84
2022-11-03T02:11:57.477Z,100892.94
2022-11-03T02:14:25.198Z,100886.19
2022-11-03T02:16:56.952Z,100876.63
2022-11-03T02:19:35.026Z,100874.03
2022-11-03T02:22:16.012Z,100877.56
2022-11-03T02:24:54.077Z,100862.75
2022-11-03T02:27:23.794Z,100872.28
2022-11-03T02:29:51.649Z,100869.66
2022-11-03T02:32:23.655Z,100872.41
2022-11-03T02:35:01.403Z,100880.94
2022-11-03T02:37:32.877Z,100874.91
2022-11-03T02:40:06.143Z,100835.28
2022-11-03T02:42:38.585Z,100837.75
2022-11-03T02:45:13.369Z,100863.72
2022-11-03T02:47:44.683Z,100861.81
2022-11-03T02:50:12.447Z,100824.66
2022-11-03T02:52:42.350Z,100838.28
2022-11-03T02:55:20.080Z,100826.34
2022-11-03T02:57:54.255Z,100825.44
2022-11-03T03:00:22.172Z,100815.09
2022-11-03T03:02:57.482Z,100826.38
2022-11-03T03:05:29.194Z,100816.03
2022-11-03T03:08:02.647Z,100813.56
2022-11-03T03:10:34.595Z,100818.06
2022-11-03T03:13:06.236Z,100810.22
2022-11-03T03:15:42.007Z,100815.41
2022-11-03T03:18:17.636Z,100799.00
2022-11-03T03:20:53.555Z,100807.59
2022-11-03T03:23:24.146Z,100808.59
2022-11-03T03:25:57.502Z,100797.25
2022-11-03T03:28:32.763Z,100795.66
2022-11-03T03:31:02.762Z,100799.16
2022-11-03T04:40:19.931Z,100706.00
2022-11-03T04:42:47.941Z,100766.38
2022-11-03T04:45:23.409Z,100740.19
2022-11-03T04:47:52.950Z,100759.34
2022-11-03T04:50:23.346Z,100742.19
2022-11-03T04:52:56.202Z,100757.56
2022-11-03T04:55:26.211Z,100738.72
2022-11-03T04:57:58.461Z,100755.94
2022-11-03T05:00:26.204Z,100746.44
2022-11-03T05:02:56.134Z,100725.06
2022-11-03T05:05:26.958Z,100749.03
2022-11-03T05:07:57.692Z,100744.69
2022-11-03T05:10:29.322Z,100743.81
2022-11-03T05:12:57.639Z,100736.00
2022-11-03T05:15:32.616Z,100741.09
2022-11-03T05:18:01.241Z,100737.66
2022-11-03T05:20:35.918Z,100743.81
2022-11-03T05:23:07.045Z,100737.03
2022-11-03T05:25:41.593Z,100700.88
2022-11-03T05:28:22.775Z,100708.44
2022-11-03T05:30:51.837Z,100716.41
2022-11-03T05:33:28.597Z,100711.00
2022-11-03T05:35:58.228Z,100721.47
2022-11-03T05:38:26.839Z,100711.84
2022-11-03T05:40:55.981Z,100710.91
2022-11-03T05:43:23.706Z,100697.13
2022-11-03T05:45:54.895Z,100687.84
2022-11-03T05:48:31.841Z,100692.09
2022-11-03T05:51:01.193Z,100705.88
2022-11-03T05:53:31.703Z,100704.97
2022-11-03T05:56:03.250Z,100705.78
2022-11-03T05:58:35.786Z,100711.03
2022-11-03T06:01:11.308Z,100698.00
2022-11-03T06:03:39.876Z,100680.84
2022-11-03T06:06:17.593Z,100659.34
2022-11-03T06:08:46.291Z,100689.47
2022-11-03T06:11:25.636Z,100643.09
2022-11-03T06:13:53.516Z,100703.13
2022-11-03T06:16:41.210Z,100717.81
2022-11-03T06:19:27.705Z,100714.41
2022-11-03T06:21:58.118Z,100709.97
2022-11-03T06:24:30.853Z,100710.88
2022-11-03T06:27:00.090Z,100721.16
2022-11-03T06:29:27.908Z,100721.03
2022-11-03T06:31:58.282Z,100698.53
2022-11-03T06:34:45.822Z,100702.59
2022-11-03T06:37:21.286Z,100695.63
2022-11-03T06:39:49.744Z,100701.56
2022-11-03T06:42:22.127Z,100691.91
2022-11-03T06:44:51.343Z,100689.38
2022-11-03T06:47:24.376Z,100685.94
2022-11-03T06:49:53.988Z,100690.94
2022-11-03T06:52:27.847Z,100683.94
2022-11-03T06:55:02.028Z,100681.91
2022-11-03T06:57:36.525Z,100683.84
2022-11-03T07:00:33.052Z,100675.25
2022-11-03T07:03:08.556Z,100668.28
2022-11-03T07:05:37.521Z,100669.72
2022-11-03T07:08:15.561Z,100623.22
2022-11-03T07:10:43.349Z,100689.53
2022-11-03T07:13:16.693Z,100678.72
2022-11-03T07:15:46.687Z,100672.47
2022-11-03T07:18:22.450Z,100665.69
2022-11-03T07:20:50.346Z,100673.63
2022-11-03T07:23:20.882Z,100666.72
2022-11-03T07:25:53.371Z,100681.03
2022-11-03T07:28:26.047Z,100677.22
2022-11-03T07:30:53.895Z,100663.25
2022-11-03T07:33:23.712Z,100662.34
2022-11-03T07:36:14.300Z,100660.63
2022-11-03T07:38:40.333Z,100637.94
2022-11-03T07:41:18.346Z,100653.25
2022-11-03T07:43:54.960Z,100661.00
2022-11-03T07:46:24.848Z,100648.59
2022-11-03T07:48:55.264Z,100648.63
2022-11-03T07:51:24.885Z,100651.09
2022-11-03T07:53:55.486Z,100640.25
2022-11-03T07:56:25.587Z,100639.59
2022-11-03T07:58:59.865Z,100655.78
2022-11-03T08:01:29.908Z,100610.44
2022-11-03T08:04:01.768Z,100627.38
2022-11-03T08:06:30.679Z,100632.28
2022-11-03T08:08:58.405Z,100561.28
2022-11-03T08:11:29.285Z,100617.91
2022-11-03T08:13:59.043Z,100627.56
2022-11-03T08:16:26.783Z,100619.50
2022-11-03T08:18:55.444Z,100624.09
2022-11-03T08:21:23.201Z,100629.81
2022-11-03T08:23:50.962Z,100613.66
2022-11-03T08:26:18.686Z,100602.03
2022-11-03T08:28:46.394Z,100616.50
2022-11-03T08:31:15.511Z,100597.81
2022-11-03T08:33:43.259Z,100598.47
2022-11-03T08:36:11.428Z,100605.41
2022-11-03T08:38:39.363Z,100603.59
2022-11-03T08:41:07.235Z,100613.28
2022-11-03T08:43:34.929Z,100603.03
2022-11-03T08:46:08.217Z,100603.78
2022-11-03T08:48:44.954Z,100610.63
2022-11-03T08:51:13.906Z,100580.38
2022-11-03T08:53:43.168Z,100580.50
2022-11-03T08:56:13.110Z,100569.84
2022-11-03T08:58:42.166Z,100597.41
2022-11-03T09:01:09.905Z,100591.25
2022-11-03T09:03:37.677Z,100578.00
2022-11-03T09:06:07.445Z,100590.97
2022-11-03T09:11:22.898Z,100584.09
2022-11-03T09:13:50.625Z,100580.25
2022-11-03T09:16:18.419Z,100574.94
2022-11-03T09:18:46.607Z,100572.81
2022-11-03T09:21:15.809Z,100554.50
2022-11-03T09:23:43.532Z,100554.53
2022-11-03T09:26:11.237Z,100545.16
2022-11-03T09:28:39.138Z,100535.72
2022-11-03T09:31:06.944Z,100550.88
2022-11-03T09:33:35.046Z,100494.19
2022-11-03T09:36:03.344Z,100536.78
2022-11-03T09:38:35.204Z,100530.94
2022-11-03T09:41:09.799Z,100446.53
2022-11-03T09:43:48.416Z,100523.66
2022-11-03T09:46:17.918Z,100460.34
2022-11-03T09:48:45.952Z,100466.50
2022-11-03T09:51:20.215Z,100514.47
2022-11-03T09:53:49.892Z,100513.72
2022-11-03T09:56:20.463Z,100495.34
2022-11-03T09:58:53.051Z,100493.34
2022-11-03T10:01:22.090Z,100499.81
2022-11-03T10:03:49.969Z,100512.47
2022-11-03T10:06:18.151Z,100505.78
2022-11-03T10:08:49.140Z,100500.00
2022-11-03T10:11:16.990Z,100490.63
2022-11-03T10:13:48.847Z,100507.88
2022-11-03T10:16:19.228Z,100509.91
2022-11-03T10:18:46.980Z,100511.88
2022-11-03T10:21:17.411Z,100488.38
2022-11-03T10:23:45.283Z,100528.75
2022-11-03T10:26:18.720Z,100510.59
2022-11-03T10:29:00.195Z,100482.28
2022-11-03T10:31:34.759Z,100505.44
2022-11-03T10:34:03.009Z,100459.63
2022-11-03T10:36:32.534Z,100503.31
2022-11-03T10:39:01.728Z,100494.34
2022-11-03T10:41:32.490Z,100502.00
2022-11-03T10:44:02.637Z,100475.88
2022-11-03T10:46:50.682Z,100493.88
2022-11-03T10:49:20.755Z,100493.91
2022-11-03T10:51:50.996Z,100446.63
2022-11-03T10:54:20.877Z,100481.88
2022-11-03T10:56:51.711Z,100486.34
2022-11-03T10:59:21.382Z,100475.78
2022-11-03T11:01:49.215Z,100451.69
2022-11-03T11:04:18.096Z,100473.44
2022-11-03T11:06:46.223Z,100466.59
2022-11-03T11:09:25.567Z,100430.91
2022-11-03T11:12:03.497Z,100440.13
2022-11-03T11:14:39.547Z,100434.34
2022-11-03T11:17:07.534Z,100455.72
2022-11-03T11:20:08.677Z,100448.09
2022-11-03T11:22:36.385Z,100446.34
2022-11-03T11:25:04.741Z,100424.91
2022-11-03T11:27:58.722Z,100451.91
2022-11-03T11:31:22.949Z,100451.91
2022-11-03T11:33:51.221Z,100449.56
2022-11-03T11:36:24.977Z,100442.25
2022-11-03T11:38:57.706Z,100440.97
2022-11-03T11:42:02.733Z,100435.56
2022-11-03T11:45:06.570Z,100433.34
2022-11-03T11:47:47.323Z,100442.69
2022-11-03T11:50:27.948Z,100433.91
2022-11-03T11:53:10.778Z,100430.41
2022-11-03T11:55:47.278Z,100429.97
2022-11-03T11:58:33.808Z,100426.53
2022-11-03T12:01:05.049Z,100421.38
2022-11-03T12:03:37.346Z,100398.06
2022-11-03T12:06:05.658Z,100415.19
2022-11-03T12:08:33.550Z,100412.28
2022-11-03T12:11:03.511Z,100401.06
2022-11-03T12:13:53.058Z,100416.69
2022-11-03T12:16:33.642Z,100387.94
2022-11-03T12:19:50.040Z,100394.31
2022-11-03T12:22:40.925Z,100389.88
2022-11-03T12:25:33.991Z,100379.81
2022-11-03T12:28:01.852Z,100357.50
2022-11-03T12:30:29.667Z,100342.81
2022-11-03T12:32:58.746Z,100367.22
2022-11-03T12:35:26.468Z,100370.97
2022-11-03T12:37:54.178Z,100323.91
2022-11-03T12:40:22.606Z,100330.44
2022-11-03T12:42:50.354Z,100365.91
2022-11-03T12:45:18.188Z,100365.28
2022-11-03T12:47:45.894Z,100359.28
2022-11-03T12:50:15.248Z,100330.22
2022-11-03T12:52:42.931Z,100339.00
2022-11-03T12:55:11.367Z,100361.25
2022-11-03T12:57:39.081Z,100350.22
2022-11-03T13:00:08.155Z,100339.03
2022-11-03T13:02:35.961Z,100351.69
2022-11-03T13:05:04.036Z,100345.59
2022-11-03T13:07:35.055Z,100349.16
2022-11-03T13:10:03.087Z,100335.47
2022-11-03T13:12:33.947Z,100328.38
2022-11-03T13:15:03.533Z,100329.41
2022-11-03T13:17:40.432Z,100328.44
2022-11-03T13:20:16.260Z,100280.13
2022-11-03T13:22:45.401Z,100318.38
2022-11-03T13:25:13.169Z,100316.53
2022-11-03T13:27:40.909Z,100305.44
2022-11-03T13:30:10.185Z,100313.81
2022-11-03T13:32:37.894Z,100319.31
2022-11-03T13:35:10.871Z,100309.97
2022-11-03T13:37:41.133Z,100295.59
2022-11-03T13:40:29.438Z,100288.28
2022-11-03T13:43:00.684Z,100292.06
2022-11-03T13:45:28.473Z,100287.41
2022-11-03T13:48:48.436Z,100282.81
2022-11-03T13:50:45.058Z,100289.78
2022-11-03T13:56:05.806Z,100270.69
2022-11-03T14:01:24.117Z,100258.06
2022-11-03T14:06:40.056Z,100262.75
2022-11-03T14:09:07.723Z,100270.47
2022-11-03T14:11:54.185Z,100263.16
2022-11-03T14:14:21.876Z,100250.34
2022-11-03T14:16:49.612Z,100254.72
2022-11-03T14:19:17.397Z,100257.06
2022-11-03T14:21:45.059Z,100247.41
2022-11-03T14:24:12.768Z,100247.78
2022-11-03T14:26:43.236Z,100240.56
2022-11-03T14:29:11.640Z,100191.75
2022-11-03T14:31:39.514Z,100209.03
2022-11-03T14:34:07.205Z,100212.81
2022-11-03T14:36:34.900Z,100214.84
2022-11-03T14:39:02.882Z,100213.88
2022-11-03T14:41:48.313Z,100215.47
2022-11-03T14:44:17.371Z,100205.38
2022-11-03T14:46:45.032Z,100113.72
2022-11-03T14:49:15.018Z,100200.91
2022-11-03T14:51:43.024Z,100207.41
2022-11-03T14:54:10.721Z,100188.94
2022-11-03T14:56:38.430Z,100195.53
2022-11-03T14:59:06.112Z,100181.53
2022-11-03T15:01:36.614Z,100166.91
2022-11-03T15:04:04.527Z,100183.03
2022-11-03T15:06:32.185Z,100177.38
2022-11-03T15:08:59.897Z,100187.84
2022-11-03T15:11:27.660Z,100156.78
2022-11-03T15:13:55.570Z,100167.59
2022-11-03T15:16:24.187Z,100181.75
2022-11-03T15:18:53.289Z,100160.56
2022-11-03T15:21:21.085Z,100156.41
2022-11-03T15:26:36.531Z,100120.41
2022-11-03T15:29:04.345Z,100134.41
2022-11-03T15:31:32.066Z,100065.91
2022-11-03T15:34:04.428Z,100112.75
2022-11-03T15:36:35.519Z,100123.00
2022-11-03T15:39:03.799Z,100118.56
2022-11-03T15:41:31.458Z,100108.50
2022-11-03T15:43:59.147Z,100111.84
2022-11-03T15:46:26.897Z,100110.94
2022-11-03T15:48:57.607Z,100087.88
2022-11-03T15:51:26.790Z,100095.94
2022-11-03T15:53:58.419Z,100075.59
2022-11-03T15:56:26.940Z,100074.66
2022-11-03T15:58:54.932Z,100081.09
2022-11-03T16:01:22.943Z,100057.06
2022-11-03T16:03:50.816Z,100040.59
2022-11-03T16:06:18.977Z,100051.59
2022-11-03T16:08:53.485Z,100026.84
2022-11-03T16:11:21.153Z,100058.00
2022-11-03T16:13:48.947Z,100063.22
2022-11-03T16:16:16.707Z,99982.38
2022-11-03T16:18:44.459Z,100037.13
2022-11-03T16:21:12.162Z,100050.69
2022-11-03T16:23:39.859Z,100056.69
2022-11-03T16:26:09.089Z,99959.88
2022-11-03T16:28:37.059Z,100042.97
2022-11-03T16:31:04.798Z,100031.13
2022-11-03T16:33:32.488Z,100022.66
2022-11-03T16:36:00.227Z,100004.53
2022-11-03T16:38:27.977Z,100007.69
2022-11-03T16:40:55.661Z,99994.91
2022-11-03T16:43:24.738Z,100007.94
2022-11-03T16:45:52.808Z,100007.09
2022-11-03T16:48:20.930Z,100017.78
2022-11-03T16:50:51.428Z,100007.88
2022-11-03T16:53:20.602Z,99988.66
2022-11-03T16:55:49.571Z,100006.03
2022-11-03T16:58:17.416Z,100017.66
2022-11-03T17:00:46.486Z,100021.31
2022-11-03T17:03:14.339Z,100015.84
2022-11-03T17:05:42.028Z,100029.84
2022-11-03T17:08:31.680Z,100023.88
2022-11-03T17:10:58.392Z,100027.16
2022-11-03T17:13:33.057Z,99976.06
2022-11-03T17:16:02.317Z,99987.91
2022-11-03T17:18:30.501Z,100035.31
2022-11-03T17:20:58.544Z,100021.31
2022-11-03T17:23:26.528Z,99975.44
2022-11-03T17:25:54.591Z,100023.19
2022-11-03T17:28:22.532Z,100011.28
2022-11-03T17:30:50.736Z,99982.94
2022-11-03T17:33:19.806Z,100010.09
2022-11-03T17:35:48.011Z,100004.06
2022-11-03T17:38:18.458Z,100005.09
2022-11-03T17:40:48.972Z,99991.75
2022-11-03T17:43:20.648Z,99964.91
2022-11-03T17:45:48.546Z,99983.50
2022-11-03T17:48:16.439Z,100010.97
2022-11-03T17:50:47.763Z,100000.81
2022-11-03T17:53:21.991Z,100008.41
2022-11-03T17:56:08.857Z,100006.13
2022-11-03T17:58:44.904Z,99976.16
2022-11-03T18:01:20.363Z,99989.09
2022-11-03T18:03:48.302Z,99907.59
2022-11-03T18:06:19.786Z,99961.09
2022-11-03T18:08:48.196Z,99933.59
2022-11-03T18:11:33.268Z,99986.31
2022-11-03T18:14:01.571Z,99984.72
2022-11-03T18:16:30.371Z,99932.38
2022-11-03T18:18:58.377Z,99930.91
2022-11-03T18:21:29.280Z,99967.34
2022-11-03T18:23:57.012Z,99983.63
2022-11-03T18:26:26.733Z,99942.34
2022-11-03T18:28:54.855Z,99964.88
2022-11-03T18:31:25.167Z,99950.59
2022-11-03T18:33:54.546Z,99911.78
2022-11-03T18:36:22.309Z,99920.13
2022-11-03T18:38:53.424Z,99922.84
2022-11-03T18:41:35.122Z,99878.72
2022-11-03T18:44:02.881Z,99917.72
2022-11-03T18:46:31.235Z,99901.41
2022-11-03T18:48:58.959Z,99904.69
2022-11-03T18:51:27.094Z,99912.50
2022-11-03T18:53:56.386Z,99907.06
2022-11-03T18:56:24.093Z,99906.28
2022-11-03T18:58:54.122Z,99887.50
2022-11-03T19:01:23.797Z,99897.66
2022-11-03T19:03:52.912Z,99893.91
2022-11-03T19:06:21.276Z,99888.78
2022-11-03T19:08:49.398Z,99830.25
2022-11-03T19:11:18.419Z,99871.56
2022-11-03T19:13:48.432Z,99879.31
2022-11-03T19:16:20.118Z,99876.81
2022-11-03T19:18:48.451Z,99876.03
2022-11-03T19:21:17.827Z,99878.06
2022-11-03T19:23:48.019Z,99861.78
2022-11-03T19:26:21.998Z,99871.44
2022-11-03T19:28:55.367Z,99871.44
2022-11-03T19:31:27.669Z,99860.22
2022-11-03T19:33:57.704Z,99850.88
2022-11-03T19:36:26.064Z,99851.59
2022-11-03T19:38:53.748Z,99851.72
2022-11-03T19:41:40.153Z,99859.22
2022-11-03T19:44:11.908Z,99835.88
2022-11-03T19:46:40.216Z,99816.38
2022-11-03T19:49:08.669Z,99775.22
2022-11-03T19:51:39.680Z,99838.72
2022-11-03T19:54:15.498Z,99848.28
2022-11-03T19:56:46.452Z,99839.66
2022-11-03T19:59:16.256Z,99845.84
2022-11-03T20:01:44.277Z,99819.81
2022-11-03T20:04:12.199Z,99790.09
2022-11-03T20:06:40.974Z,99784.97
2022-11-03T20:09:11.994Z,99808.19
2022-11-03T20:11:39.692Z,99768.69
2022-11-03T20:14:16.156Z,99782.41
2022-11-03T20:16:43.816Z,99805.63
2022-11-03T20:19:11.500Z,99782.25
2022-11-03T20:21:41.038Z,99743.22
2022-11-03T20:24:09.193Z,99734.81
2022-11-03T20:26:38.197Z,99796.72
2022-11-03T20:29:13.415Z,99789.44
2022-11-03T20:31:41.823Z,99773.91
2022-11-03T20:34:12.739Z,99788.84
2022-11-03T20:36:40.697Z,99732.91
2022-11-03T20:39:18.041Z,99721.25
2022-11-03T20:41:52.018Z,99773.00
2022-11-03T20:44:21.178Z,99792.38
2022-11-03T20:46:48.888Z,99797.34
2022-11-03T20:49:16.841Z,99762.09
2022-11-03T20:51:46.549Z,99775.75
2022-11-03T20:54:17.524Z,99789.00
2022-11-03T20:56:45.947Z,99768.34
2022-11-03T21:01:43.570Z,99767.50
2022-11-03T21:04:16.476Z,99744.28
2022-11-03T21:06:44.346Z,99734.44
2022-11-03T21:09:13.399Z,99716.44
2022-11-03T21:11:43.245Z,99766.53
2022-11-03T21:14:16.660Z,99765.31
2022-11-03T21:17:03.361Z,99755.78
2022-11-03T21:19:55.596Z,99738.28
2022-11-03T21:22:54.824Z,99763.19
2022-11-03T21:25:15.117Z,99735.19
2022-11-03T21:27:42.952Z,99749.81
2022-11-03T21:30:12.809Z,99753.44
2022-11-03T21:32:42.053Z,99766.97
2022-11-03T21:35:15.315Z,99743.25
2022-11-03T21:37:43.015Z,99754.66
2022-11-03T21:40:11.798Z,99745.91
2022-11-03T21:42:57.184Z,99754.72
2022-11-03T21:45:24.952Z,99753.19
2022-11-03T21:48:14.055Z,99730.09
2022-11-03T21:50:42.270Z,99713.91
2022-11-03T21:53:10.453Z,99730.16
2022-11-03T21:55:38.687Z,99744.94
2022-11-03T21:58:06.509Z,99738.94
2022-11-03T22:00:34.437Z,99724.88
2022-11-03T22:03:03.517Z,99722.22
2022-11-03T22:05:31.237Z,99724.19
2022-11-03T22:07:58.939Z,99720.69
2022-11-03T22:10:26.610Z,99710.13
2022-11-03T22:12:54.327Z,99715.53
2022-11-03T22:15:39.730Z,99704.25
2022-11-03T22:18:09.186Z,99712.75
2022-11-03T22:20:54.769Z,99716.09
2022-11-03T22:23:40.292Z,99711.72
2022-11-03T22:26:28.563Z,99703.72
2022-11-03T22:29:16.962Z,99707.69
2022-11-03T22:31:44.720Z,99698.28
2022-11-03T22:34:31.526Z,99697.50
2022-11-03T22:36:59.320Z,99694.66
2022-11-03T22:39:44.994Z,99690.47
2022-11-03T22:42:30.732Z,99681.75
2022-11-03T22:45:16.046Z,99667.34
2022-11-03T22:47:43.854Z,99671.44
2022-11-03T22:50:12.915Z,99652.13
2022-11-03T22:52:40.649Z,99655.47
2022-11-03T22:55:07.736Z,99638.31
2022-11-03T22:57:35.464Z,99619.91
2022-11-03T23:00:05.623Z,99638.06
2022-11-03T23:02:33.503Z,99649.09
2022-11-03T23:05:01.318Z,99648.25
2022-11-03T23:07:33.066Z,99636.75
2022-11-03T23:10:04.849Z,99644.72
2022-11-03T23:12:33.165Z,99615.53
2022-11-03T23:18:17.408Z,99647.41
2022-11-03T23:21:03.092Z,99613.47
2022-11-03T23:23:49.758Z,99637.22
2022-11-03T23:26:17.687Z,99631.16
2022-11-03T23:28:45.733Z,99632.59
2022-11-03T23:31:13.743Z,99621.50
2022-11-03T23:33:41.490Z,99621.88
2022-11-03T23:36:11.302Z,99613.44
2022-11-03T23:38:41.489Z,99618.25
2022-11-03T23:41:11.448Z,99592.81
2022-11-03T23:43:39.586Z,99600.94
2022-11-03T23:46:25.366Z,99600.09
2022-11-03T23:48:53.711Z,99608.22
2022-11-03T23:51:23.209Z,99599.84
2022-11-03T23:53:52.896Z,99619.63
2022-11-03T23:56:39.870Z,99611.31
2022-11-03T23:59:09.010Z,99571.63
